createdAt,value
2023-05-20T00:00:08.144Z,100276.56
2023-05-20T00:02:35.862Z,100275.45
2023-05-20T00:05:03.103Z,100276.16
2023-05-20T00:07:30.353Z,100272.33
2023-05-20T00:09:57.302Z,100272.45
2023-05-20T00:12:24.293Z,100267.55
2023-05-20T00:14:51.602Z,100272.52
2023-05-20T00:17:19.212Z,100271.28
2023-05-20T00:19:46.456Z,100269.86
2023-05-20T00:22:13.325Z,100269.15
2023-05-20T00:24:40.257Z,100276.25
2023-05-20T00:27:07.323Z,100278.63
2023-05-20T00:29:34.264Z,100281.13
2023-05-20T00:32:01.275Z,100276.30
2023-05-20T00:34:28.201Z,100276.94
2023-05-20T00:36:55.703Z,100277.13
2023-05-20T00:39:22.910Z,100277.08
2023-05-20T00:41:49.810Z,100270.19
2023-05-20T00:44:18.788Z,100269.30
2023-05-20T00:46:46.694Z,100268.27
2023-05-20T00:49:14.203Z,100269.67
2023-05-20T00:51:41.158Z,100272.84
2023-05-20T00:54:08.202Z,100268.50
2023-05-20T00:56:35.273Z,100264.61
2023-05-20T00:59:02.141Z,100264.41
2023-05-20T01:01:29.385Z,100262.61
2023-05-20T01:03:56.989Z,100264.06
2023-05-20T01:06:26.148Z,100264.34
2023-05-20T01:08:53.504Z,100260.97
2023-05-20T01:11:33.856Z,100260.35
2023-05-20T01:14:06.651Z,100260.36
2023-05-20T01:16:36.023Z,100259.04
2023-05-20T01:19:04.048Z,100258.10
2023-05-20T01:21:32.413Z,100260.90
2023-05-20T01:23:59.346Z,100261.16
2023-05-20T01:26:27.360Z,100260.14
2023-05-20T01:28:54.529Z,100260.65
2023-05-20T01:31:26.569Z,100256.08
2023-05-20T01:33:56.220Z,100258.84
2023-05-20T01:36:23.165Z,100262.05
2023-05-20T01:38:50.123Z,100257.27
2023-05-20T01:41:17.217Z,100256.10
2023-05-20T01:43:44.402Z,100258.27
2023-05-20T01:46:11.412Z,100259.19
2023-05-20T01:48:38.485Z,100259.63
2023-05-20T01:51:06.712Z,100262.70
2023-05-20T01:53:34.024Z,100261.36
2023-05-20T01:56:01.071Z,100262.19
2023-05-20T01:58:28.411Z,100262.83
2023-05-20T02:00:55.310Z,100267.43
2023-05-20T02:03:22.800Z,100268.80
2023-05-20T02:05:49.820Z,100269.91
2023-05-20T02:08:18.289Z,100272.70
2023-05-20T02:10:48.443Z,100274.41
2023-05-20T02:13:15.495Z,100277.08
2023-05-20T02:15:42.713Z,100281.48
2023-05-20T02:18:09.743Z,100283.58
2023-05-20T02:20:37.420Z,100283.23
2023-05-20T02:23:08.688Z,100278.37
2023-05-20T02:25:37.525Z,100272.41
2023-05-20T02:28:06.166Z,100276.89
2023-05-20T02:30:33.377Z,100280.73
2023-05-20T02:33:04.640Z,100275.89
2023-05-20T02:35:32.162Z,100282.14
2023-05-20T02:37:59.136Z,100281.36
2023-05-20T02:40:26.153Z,100282.67
2023-05-20T02:42:54.343Z,100281.27
2023-05-20T02:45:21.467Z,100278.92
2023-05-20T02:47:48.589Z,100282.39
2023-05-20T02:50:15.628Z,100287.83
2023-05-20T02:52:42.939Z,100291.29
2023-05-20T02:55:10.164Z,100296.91
2023-05-20T02:57:38.523Z,100296.70
2023-05-20T03:00:13.424Z,100298.14
2023-05-20T03:02:41.448Z,100292.98
2023-05-20T03:05:08.775Z,100297.42
2023-05-20T03:07:36.579Z,100298.02
2023-05-20T03:10:06.921Z,100294.35
2023-05-20T03:12:33.972Z,100293.67
2023-05-20T03:15:01.343Z,100291.81
2023-05-20T03:17:29.120Z,100288.95
2023-05-20T03:19:57.028Z,100290.95
2023-05-20T03:22:24.105Z,100291.84
2023-05-20T03:24:52.905Z,100290.30
2023-05-20T03:27:22.049Z,100285.77
2023-05-20T03:29:49.033Z,100284.88
2023-05-20T03:32:17.229Z,100282.04
2023-05-20T03:34:44.265Z,100283.13
2023-05-20T03:37:11.275Z,100285.22
2023-05-20T03:39:38.311Z,100282.09
2023-05-20T03:42:05.674Z,100281.34
2023-05-20T03:44:32.813Z,100285.71
2023-05-20T03:46:59.796Z,100287.17
2023-05-20T03:49:26.906Z,100290.80
2023-05-20T03:51:54.003Z,100285.11
2023-05-20T03:54:21.076Z,100290.45
2023-05-20T03:56:49.703Z,100296.46
2023-05-20T03:59:16.643Z,100301.02
2023-05-20T04:01:43.585Z,100301.65
2023-05-20T04:04:11.013Z,100302.77
2023-05-20T04:06:38.367Z,100295.88
2023-05-20T04:09:06.101Z,100302.15
2023-05-20T04:11:34.597Z,100300.44
2023-05-20T04:14:01.581Z,100302.72
2023-05-20T04:16:32.301Z,100305.25
2023-05-20T04:19:00.033Z,100307.36
2023-05-20T04:21:27.455Z,100303.84
2023-05-20T04:23:54.652Z,100304.83
2023-05-20T04:26:21.708Z,100299.41
2023-05-20T04:28:51.208Z,100300.86
2023-05-20T04:31:18.812Z,100300.20
2023-05-20T04:33:46.849Z,100299.29
2023-05-20T04:36:16.630Z,100294.46
2023-05-20T04:38:44.815Z,100297.70
2023-05-20T04:41:11.811Z,100294.83
2023-05-20T04:43:40.357Z,100290.10
2023-05-20T04:46:07.781Z,100288.02
2023-05-20T04:48:35.419Z,100287.27
2023-05-20T04:51:03.209Z,100283.75
2023-05-20T04:53:34.014Z,100286.25
2023-05-20T04:56:01.391Z,100284.96
2023-05-20T04:58:29.754Z,100285.85
2023-05-20T05:00:56.787Z,100286.04
2023-05-20T05:03:24.154Z,100283.71
2023-05-20T05:05:51.645Z,100279.74
2023-05-20T05:08:19.252Z,100282.81
2023-05-20T05:10:49.809Z,100278.35
2023-05-20T05:13:16.913Z,100279.98
2023-05-20T05:15:44.012Z,100278.27
2023-05-20T05:18:11.991Z,100288.48
2023-05-20T05:20:39.153Z,100287.13
2023-05-20T05:23:07.245Z,100295.94
2023-05-20T05:25:34.609Z,100296.39
2023-05-20T05:28:02.049Z,100294.67
2023-05-20T05:30:29.067Z,100299.77
2023-05-20T05:32:56.433Z,100299.07
2023-05-20T05:35:23.618Z,100305.83
2023-05-20T05:37:50.768Z,100306.50
2023-05-20T05:40:17.835Z,100307.19
2023-05-20T05:42:45.236Z,100309.34
2023-05-20T05:45:12.284Z,100312.02
2023-05-20T05:47:39.568Z,100317.20
2023-05-20T05:50:06.903Z,100316.02
2023-05-20T05:52:34.535Z,100312.60
2023-05-20T05:55:02.599Z,100307.35
2023-05-20T05:57:30.808Z,100303.07
2023-05-20T05:59:58.441Z,100303.09
2023-05-20T06:02:25.539Z,100306.50
2023-05-20T06:04:53.954Z,100304.50
2023-05-20T06:07:23.353Z,100304.96
2023-05-20T06:09:51.405Z,100305.29
2023-05-20T06:12:18.432Z,100308.81
2023-05-20T06:14:45.591Z,100308.20
2023-05-20T06:17:13.070Z,100303.13
2023-05-20T06:19:41.704Z,100306.14
2023-05-20T06:22:09.157Z,100307.85
2023-05-20T06:24:36.606Z,100306.16
2023-05-20T06:27:03.673Z,100307.85
2023-05-20T06:29:31.280Z,100310.19
2023-05-20T06:31:58.398Z,100311.08
2023-05-20T06:34:25.967Z,100308.36
2023-05-20T06:36:53.501Z,100311.13
2023-05-20T06:39:20.881Z,100309.61
2023-05-20T06:41:48.004Z,100302.52
2023-05-20T06:44:27.114Z,100314.90
2023-05-20T06:47:15.762Z,100314.13
2023-05-20T06:49:45.054Z,100311.96
2023-05-20T06:52:14.215Z,100313.09
2023-05-20T06:54:42.128Z,100313.59
2023-05-20T06:57:10.999Z,100311.58
2023-05-20T06:59:38.305Z,100310.81
2023-05-20T07:02:06.566Z,100312.67
2023-05-20T07:04:33.858Z,100309.51
2023-05-20T07:07:01.000Z,100303.20
2023-05-20T07:09:28.236Z,100301.65
2023-05-20T07:11:55.625Z,100302.92
2023-05-20T07:14:22.585Z,100299.60
2023-05-20T07:16:50.024Z,100297.80
2023-05-20T07:19:16.980Z,100303.52
2023-05-20T07:21:44.096Z,100304.17
2023-05-20T07:24:25.025Z,100306.86
2023-05-20T07:26:51.987Z,100307.73
2023-05-20T07:29:19.230Z,100308.32
2023-05-20T07:31:46.606Z,100306.75
2023-05-20T07:34:13.756Z,100311.89
2023-05-20T07:36:41.086Z,100314.32
2023-05-20T07:39:13.448Z,100316.77
2023-05-20T07:41:42.162Z,100310.48
2023-05-20T07:44:09.223Z,100315.80
2023-05-20T07:46:39.018Z,100319.00
2023-05-20T07:49:06.855Z,100308.73
2023-05-20T07:51:34.897Z,100314.57
2023-05-20T07:54:02.021Z,100316.79
2023-05-20T07:56:29.266Z,100315.23
2023-05-20T07:58:58.572Z,100318.04
2023-05-20T08:01:28.522Z,100315.02
2023-05-20T08:03:56.189Z,100314.45
2023-05-20T08:06:28.733Z,100317.84
2023-05-20T08:08:56.830Z,100318.31
2023-05-20T08:11:28.588Z,100314.48
2023-05-20T08:13:56.617Z,100315.50
2023-05-20T08:16:24.170Z,100317.66
2023-05-20T08:18:51.254Z,100316.92
2023-05-20T08:21:20.076Z,100322.71
2023-05-20T08:23:47.077Z,100323.39
2023-05-20T08:26:14.246Z,100321.13
2023-05-20T08:28:42.205Z,100321.02
2023-05-20T08:31:09.847Z,100325.50
2023-05-20T08:33:37.388Z,100324.82
2023-05-20T08:36:04.644Z,100321.11
2023-05-20T08:38:31.870Z,100318.23
2023-05-20T08:40:58.920Z,100321.16
2023-05-20T08:43:26.783Z,100321.48
2023-05-20T08:45:54.982Z,100319.24
2023-05-20T08:48:26.060Z,100320.39
2023-05-20T08:50:53.320Z,100317.60
2023-05-20T08:53:20.721Z,100317.14
2023-05-20T08:55:52.844Z,100309.98
2023-05-20T08:58:20.057Z,100315.77
2023-05-20T09:00:47.080Z,100322.96
2023-05-20T09:03:14.291Z,100321.66
2023-05-20T09:05:41.601Z,100321.05
2023-05-20T09:08:10.240Z,100317.49
2023-05-20T09:10:38.694Z,100322.61
2023-05-20T09:13:06.878Z,100322.22
2023-05-20T09:15:34.841Z,100322.88
2023-05-20T09:18:06.522Z,100315.88
2023-05-20T09:20:37.713Z,100308.77
2023-05-20T09:23:05.897Z,100313.25
2023-05-20T09:25:34.238Z,100313.92
2023-05-20T09:28:01.426Z,100313.18
2023-05-20T09:30:28.431Z,100306.39
2023-05-20T09:32:56.249Z,100299.29
2023-05-20T09:35:27.207Z,100297.14
2023-05-20T09:37:56.559Z,100291.63
2023-05-20T09:40:25.397Z,100289.92
2023-05-20T09:43:05.166Z,100287.79
2023-05-20T09:45:32.391Z,100288.42
2023-05-20T09:48:00.148Z,100286.27
2023-05-20T09:50:27.329Z,100287.45
2023-05-20T09:52:54.731Z,100287.48
2023-05-20T09:55:24.359Z,100289.17
2023-05-20T09:57:51.955Z,100285.61
2023-05-20T10:00:19.780Z,100282.73
2023-05-20T10:02:48.933Z,100283.32
2023-05-20T10:05:38.850Z,100272.83
2023-05-20T10:08:19.164Z,100283.02
2023-05-20T10:10:59.227Z,100279.23
2023-05-20T10:13:35.549Z,100277.48
2023-05-20T10:16:10.030Z,100275.39
2023-05-20T10:19:01.107Z,100276.98
2023-05-20T10:21:28.086Z,100276.95
2023-05-20T10:23:55.117Z,100273.80
2023-05-20T10:26:22.484Z,100275.05
2023-05-20T10:28:49.509Z,100274.86
2023-05-20T10:31:17.855Z,100277.04
2023-05-20T10:33:46.009Z,100272.50
2023-05-20T10:36:24.358Z,100270.21
2023-05-20T10:39:10.098Z,100266.38
2023-05-20T10:41:37.483Z,100265.73
2023-05-20T10:44:05.964Z,100267.30
2023-05-20T10:46:46.289Z,100265.77
2023-05-20T10:50:59.975Z,100267.35
2023-05-20T10:53:34.147Z,100260.58
2023-05-20T10:56:02.003Z,100257.44
2023-05-20T10:58:37.516Z,100259.46
2023-05-20T11:01:04.776Z,100253.69
2023-05-20T11:03:32.711Z,100253.80
2023-05-20T11:06:00.099Z,100252.52
2023-05-20T11:08:33.155Z,100254.20
2023-05-20T11:11:00.325Z,100247.06
2023-05-20T11:13:27.972Z,100241.02
2023-05-20T11:15:55.674Z,100247.67
2023-05-20T11:18:23.065Z,100244.86
2023-05-20T11:20:50.265Z,100249.70
2023-05-20T11:23:17.502Z,100242.13
2023-05-20T11:25:44.410Z,100244.94
2023-05-20T11:28:14.879Z,100239.94
2023-05-20T11:30:44.728Z,100238.41
2023-05-20T11:33:12.684Z,100241.89
2023-05-20T11:35:48.014Z,100237.61
2023-05-20T11:38:15.177Z,100236.63
2023-05-20T11:40:51.258Z,100232.00
2023-05-20T11:43:18.996Z,100235.02
2023-05-20T11:45:48.089Z,100231.15
2023-05-20T11:48:15.847Z,100227.22
2023-05-20T11:50:43.430Z,100231.20
2023-05-20T11:53:15.193Z,100229.77
2023-05-20T11:55:58.395Z,100224.47
2023-05-20T11:58:30.884Z,100224.02
2023-05-20T12:01:05.719Z,100219.75
2023-05-20T12:03:41.284Z,100225.58
2023-05-20T12:06:08.360Z,100223.86
2023-05-20T12:08:35.320Z,100214.83
2023-05-20T12:11:02.561Z,100216.75
2023-05-20T12:13:30.131Z,100219.93
2023-05-20T12:15:57.154Z,100213.27
2023-05-20T12:18:24.342Z,100211.98
2023-05-20T12:20:51.492Z,100210.71
2023-05-20T12:23:18.472Z,100208.59
2023-05-20T12:25:47.450Z,100204.98
2023-05-20T12:28:14.843Z,100198.45
2023-05-20T12:30:41.851Z,100198.53
2023-05-20T12:33:09.476Z,100197.67
2023-05-20T12:35:38.135Z,100197.92
2023-05-20T12:38:05.189Z,100193.30
2023-05-20T12:40:32.325Z,100194.20
2023-05-20T12:43:03.990Z,100192.35
2023-05-20T12:45:32.801Z,100186.00
2023-05-20T12:48:00.431Z,100185.20
2023-05-20T12:50:27.526Z,100182.84
2023-05-20T12:52:54.487Z,100186.24
2023-05-20T12:55:21.481Z,100180.34
2023-05-20T12:57:48.430Z,100189.38
2023-05-20T13:00:16.086Z,100188.19
2023-05-20T13:02:43.557Z,100190.20
2023-05-20T13:05:10.783Z,100191.16
2023-05-20T13:07:37.936Z,100190.36
2023-05-20T13:10:05.845Z,100177.06
2023-05-20T13:12:36.409Z,100177.25
2023-05-20T13:15:04.446Z,100184.83
2023-05-20T13:17:32.131Z,100181.34
2023-05-20T13:19:59.472Z,100182.88
2023-05-20T13:22:26.488Z,100179.52
2023-05-20T13:24:53.534Z,100174.88
2023-05-20T13:27:20.695Z,100174.14
2023-05-20T13:29:47.625Z,100181.56
2023-05-20T13:32:14.744Z,100179.77
2023-05-20T13:34:41.951Z,100181.88
2023-05-20T13:37:08.966Z,100183.02
2023-05-20T13:39:36.618Z,100177.77
2023-05-20T13:42:04.464Z,100172.78
2023-05-20T13:44:33.394Z,100181.84
2023-05-20T13:47:00.450Z,100176.52
2023-05-20T13:49:28.419Z,100169.16
2023-05-20T13:51:55.491Z,100175.98
2023-05-20T13:54:22.430Z,100173.63
2023-05-20T13:56:49.733Z,100178.77
2023-05-20T13:59:16.777Z,100174.47
2023-05-20T14:01:45.535Z,100177.85
2023-05-20T14:04:12.853Z,100176.70
2023-05-20T14:06:39.989Z,100174.42
2023-05-20T14:09:07.212Z,100175.20
2023-05-20T14:11:34.241Z,100169.67
2023-05-20T14:14:01.355Z,100156.91
2023-05-20T14:16:28.351Z,100170.00
2023-05-20T14:18:55.459Z,100176.21
2023-05-20T14:21:22.485Z,100174.91
2023-05-20T14:23:49.759Z,100173.69
2023-05-20T14:26:16.652Z,100175.19
2023-05-20T14:28:45.105Z,100173.58
2023-05-20T14:31:12.471Z,100172.13
2023-05-20T14:33:39.418Z,100167.01
2023-05-20T14:36:06.586Z,100179.05
2023-05-20T14:38:34.370Z,100176.92
2023-05-20T14:41:01.506Z,100164.81
2023-05-20T14:43:28.723Z,100176.44
2023-05-20T14:45:55.821Z,100169.40
2023-05-20T14:48:22.766Z,100168.55
2023-05-20T14:50:50.213Z,100165.84
2023-05-20T14:53:17.979Z,100165.66
2023-05-20T14:55:45.017Z,100167.95
2023-05-20T14:58:12.013Z,100157.14
2023-05-20T15:00:39.207Z,100162.25
2023-05-20T15:03:06.546Z,100173.35
2023-05-20T15:05:33.898Z,100171.21
2023-05-20T15:08:01.127Z,100175.88
2023-05-20T15:10:28.064Z,100175.69
2023-05-20T15:12:55.351Z,100173.30
2023-05-20T15:15:22.507Z,100185.48
2023-05-20T15:17:49.465Z,100189.56
2023-05-20T15:20:17.238Z,100192.83
2023-05-20T15:22:47.994Z,100191.09
2023-05-20T15:25:15.246Z,100194.34
2023-05-20T15:27:42.465Z,100188.13
2023-05-20T15:30:09.968Z,100198.23
2023-05-20T15:32:37.680Z,100198.93
2023-05-20T15:35:05.329Z,100200.14
2023-05-20T15:37:32.483Z,100197.42
2023-05-20T15:39:59.422Z,100199.95
2023-05-20T15:42:27.032Z,100204.60
2023-05-20T15:44:53.952Z,100204.98
2023-05-20T15:47:21.475Z,100211.44
2023-05-20T15:49:48.583Z,100211.81
2023-05-20T15:52:15.822Z,100210.83
2023-05-20T15:54:42.747Z,100202.52
2023-05-20T15:57:10.211Z,100211.80
2023-05-20T15:59:37.260Z,100207.40
2023-05-20T16:02:04.315Z,100200.92
2023-05-20T16:04:32.760Z,100202.30
2023-05-20T16:06:59.760Z,100202.85
2023-05-20T16:09:26.718Z,100210.22
2023-05-20T16:11:53.723Z,100214.50
2023-05-20T16:14:20.671Z,100218.26
2023-05-20T16:16:47.672Z,100223.84
2023-05-20T16:19:15.305Z,100222.23
2023-05-20T16:21:42.275Z,100223.27
2023-05-20T16:24:09.164Z,100223.48
2023-05-20T16:26:36.235Z,100220.70
2023-05-20T16:29:03.279Z,100219.55
2023-05-20T16:31:30.605Z,100220.42
2023-05-20T16:33:57.735Z,100225.69
2023-05-20T16:36:24.964Z,100232.00
2023-05-20T16:38:51.832Z,100231.56
2023-05-20T16:41:19.116Z,100242.26
2023-05-20T16:43:46.001Z,100234.10
2023-05-20T16:46:14.795Z,100234.94
2023-05-20T16:48:42.693Z,100233.23
2023-05-20T16:51:09.696Z,100235.48
2023-05-20T16:53:37.539Z,100234.33
2023-05-20T16:56:06.215Z,100235.56
2023-05-20T16:58:33.145Z,100234.52
2023-05-20T17:01:00.138Z,100236.62
2023-05-20T17:03:27.196Z,100244.51
2023-05-20T17:05:54.408Z,100249.84
2023-05-20T17:08:21.813Z,100254.84
2023-05-20T17:10:51.261Z,100249.73
2023-05-20T17:13:19.415Z,100252.05
2023-05-20T17:15:46.356Z,100249.48
2023-05-20T17:18:13.380Z,100249.61
2023-05-20T17:20:40.572Z,100254.98
2023-05-20T17:23:07.505Z,100252.24
2023-05-20T17:25:34.380Z,100257.13
2023-05-20T17:28:01.406Z,100257.33
2023-05-20T17:30:28.668Z,100261.11
2023-05-20T17:32:57.574Z,100261.98
2023-05-20T17:35:25.965Z,100263.68
2023-05-20T17:37:53.647Z,100263.05
2023-05-20T17:40:21.466Z,100273.06
2023-05-20T17:42:48.529Z,100263.08
2023-05-20T17:45:15.533Z,100264.06
2023-05-20T17:47:42.498Z,100265.64
2023-05-20T17:50:10.554Z,100264.75
2023-05-20T17:52:38.163Z,100269.86
2023-05-20T17:55:06.756Z,100275.10
2023-05-20T17:57:34.209Z,100273.11
2023-05-20T18:00:01.118Z,100278.36
2023-05-20T18:02:28.142Z,100281.70
2023-05-20T18:04:55.123Z,100283.89
2023-05-20T18:07:22.478Z,100284.63
2023-05-20T18:09:49.540Z,100282.92
2023-05-20T18:12:16.547Z,100286.27
2023-05-20T18:14:43.529Z,100286.71
2023-05-20T18:17:10.641Z,100288.74
2023-05-20T18:19:37.709Z,100287.27
2023-05-20T18:22:07.317Z,100286.91
2023-05-20T18:24:34.410Z,100289.72
2023-05-20T18:27:01.403Z,100282.67
2023-05-20T18:29:28.337Z,100282.70
2023-05-20T18:31:55.804Z,100278.77
2023-05-20T18:34:22.909Z,100276.11
2023-05-20T18:36:49.911Z,100270.89
2023-05-20T18:39:20.633Z,100266.23
2023-05-20T18:41:48.167Z,100269.55
2023-05-20T18:44:18.872Z,100273.15
2023-05-20T18:46:46.265Z,100275.38
2023-05-20T18:49:13.371Z,100277.39
2023-05-20T18:51:40.856Z,100273.39
2023-05-20T18:54:08.025Z,100277.19
2023-05-20T18:56:35.811Z,100275.52
2023-05-20T18:59:02.826Z,100278.48
2023-05-20T19:01:30.208Z,100282.11
2023-05-20T19:03:58.215Z,100278.29
2023-05-20T19:06:25.293Z,100279.97
2023-05-20T19:08:52.246Z,100285.70
2023-05-20T19:11:19.441Z,100289.95
2023-05-20T19:13:46.571Z,100290.66
2023-05-20T19:16:14.007Z,100289.42
2023-05-20T19:18:41.114Z,100289.39
2023-05-20T19:21:08.387Z,100288.77
2023-05-20T19:23:35.976Z,100283.14
2023-05-20T19:26:03.053Z,100280.36
2023-05-20T19:28:30.585Z,100284.95
2023-05-20T19:30:58.017Z,100286.19
2023-05-20T19:33:25.569Z,100285.72
2023-05-20T19:35:52.509Z,100288.04
2023-05-20T19:38:19.490Z,100287.77
2023-05-20T19:40:47.860Z,100290.59
2023-05-20T19:43:15.199Z,100296.23
2023-05-20T19:45:42.385Z,100298.07
2023-05-20T19:48:09.472Z,100292.99
2023-05-20T19:50:36.565Z,100291.71
2023-05-20T19:53:06.491Z,100297.11
2023-05-20T19:55:35.292Z,100306.73
2023-05-20T19:58:05.256Z,100303.96
2023-05-20T20:00:32.431Z,100304.98
2023-05-20T20:02:59.655Z,100301.35
2023-05-20T20:05:27.031Z,100297.40
2023-05-20T20:07:54.264Z,100296.39
2023-05-20T20:10:21.307Z,100298.04
2023-05-20T20:12:48.844Z,100296.60
2023-05-20T20:15:16.951Z,100296.20
2023-05-20T20:17:52.012Z,100290.86
2023-05-20T20:20:19.440Z,100291.30
2023-05-20T20:22:46.592Z,100293.42
2023-05-20T20:25:14.087Z,100298.23
2023-05-20T20:27:44.215Z,100298.02
2023-05-20T20:30:13.065Z,100298.86
2023-05-20T20:32:40.790Z,100295.63
2023-05-20T20:35:08.327Z,100295.23
2023-05-20T20:37:36.155Z,100298.64
2023-05-20T20:40:04.176Z,100299.70
2023-05-20T20:42:32.437Z,100298.31
2023-05-20T20:44:59.458Z,100294.10
2023-05-20T20:47:29.328Z,100295.80
2023-05-20T20:49:56.677Z,100287.72
2023-05-20T20:52:23.605Z,100285.23
2023-05-20T20:54:50.483Z,100281.88
2023-05-20T20:57:20.129Z,100279.58
2023-05-20T20:59:48.320Z,100274.32
2023-05-20T21:02:15.921Z,100282.61
2023-05-20T21:04:43.670Z,100280.77
2023-05-20T21:07:12.099Z,100280.52
2023-05-20T21:09:40.348Z,100283.50
2023-05-20T21:12:07.672Z,100284.79
2023-05-20T21:14:36.676Z,100277.62
2023-05-20T21:17:03.946Z,100274.23
2023-05-20T21:19:31.490Z,100281.30
2023-05-20T21:21:58.513Z,100281.30
2023-05-20T21:24:25.436Z,100276.00
2023-05-20T21:26:52.430Z,100277.80
2023-05-20T21:29:19.527Z,100278.73
2023-05-20T21:31:46.480Z,100283.08
2023-05-20T21:34:13.398Z,100285.20
2023-05-20T21:36:40.495Z,100287.53
2023-05-20T21:39:07.521Z,100290.04
2023-05-20T21:41:35.298Z,100293.33
2023-05-20T21:44:02.261Z,100285.27
2023-05-20T21:46:29.536Z,100286.64
2023-05-20T21:48:56.861Z,100287.64
2023-05-20T21:51:23.958Z,100285.48
2023-05-20T21:53:50.824Z,100289.36
2023-05-20T21:56:18.243Z,100288.33
2023-05-20T21:58:45.150Z,100280.07
2023-05-20T22:01:12.119Z,100278.79
2023-05-20T22:03:40.226Z,100275.25
2023-05-20T22:06:07.355Z,100274.41
2023-05-20T22:08:34.214Z,100271.61
2023-05-20T22:11:05.519Z,100267.96
2023-05-20T22:13:33.222Z,100267.85
2023-05-20T22:16:01.533Z,100269.71
2023-05-20T22:18:29.269Z,100265.05
2023-05-20T22:20:59.302Z,100265.17
2023-05-20T22:23:26.892Z,100263.48
2023-05-20T22:25:55.018Z,100263.81
2023-05-20T22:28:21.929Z,100263.37
2023-05-20T22:30:48.798Z,100269.49
2023-05-20T22:33:15.801Z,100271.59
2023-05-20T22:35:42.759Z,100268.58
2023-05-20T22:38:09.651Z,100271.10
2023-05-20T22:40:36.585Z,100271.42
2023-05-20T22:43:03.489Z,100271.76
2023-05-20T22:45:30.690Z,100270.29
2023-05-20T22:47:57.730Z,100265.39
2023-05-20T22:50:26.408Z,100264.63
2023-05-20T22:52:53.476Z,100261.01
2023-05-20T22:55:20.723Z,100257.73
2023-05-20T22:57:48.317Z,100261.21
2023-05-20T23:00:15.555Z,100261.56
2023-05-20T23:02:42.745Z,100257.14
2023-05-20T23:07:47.423Z,100250.86
2023-05-20T23:10:14.510Z,100250.73
2023-05-20T23:12:41.735Z,100254.61
2023-05-20T23:15:10.090Z,100248.20
2023-05-20T23:17:39.808Z,100241.85
2023-05-20T23:20:11.056Z,100242.47
2023-05-20T23:22:39.320Z,100247.30
2023-05-20T23:25:07.376Z,100247.04
2023-05-20T23:27:34.528Z,100250.91
2023-05-20T23:30:01.779Z,100254.34
2023-05-20T23:32:30.489Z,100244.16
2023-05-20T23:34:57.715Z,100248.97
2023-05-20T23:37:25.306Z,100249.83
2023-05-20T23:39:52.553Z,100256.05
2023-05-20T23:42:19.722Z,100254.77
2023-05-20T23:44:47.498Z,100248.76
2023-05-20T23:47:14.792Z,100252.71
2023-05-20T23:49:41.958Z,100248.78
2023-05-20T23:52:09.003Z,100246.42
2023-05-20T23:54:36.576Z,100242.73
2023-05-20T23:57:04.370Z,100240.07
2023-05-20T23:59:31.576Z,100241.88
